sensor_id;sensor_type;location;lat;lon;timestamp;P1;durP1;ratioP1;P2;durP2;ratioP2
65289;SDS011;51893;59.754;10.110;2023-03-01T00:01:47;5.20;;;3.40;;
65289;SDS011;51893;59.754;10.110;2023-03-01T00:04:17;5.20;;;2.90;;
65289;SDS011;51893;59.754;10.110;2023-03-01T00:06:45;3.00;;;1.90;;
65289;SDS011;51893;59.754;10.110;2023-03-01T00:09:15;4.30;;;2.30;;
65289;SDS011;51893;59.754;10.110;2023-03-01T00:11:44;2.60;;;2.30;;
65289;SDS011;51893;59.754;10.110;2023-03-01T00:14:13;3.50;;;2.30;;
65289;SDS011;51893;59.754;10.110;2023-03-01T00:16:45;3.50;;;2.30;;
65289;SDS011;51893;59.754;10.110;2023-03-01T00:19:17;2.60;;;2.00;;
65289;SDS011;51893;59.754;10.110;2023-03-01T00:21:48;3.20;;;1.50;;
65289;SDS011;51893;59.754;10.110;2023-03-01T00:24:16;3.00;;;2.00;;
65289;SDS011;51893;59.754;10.110;2023-03-01T00:26:47;2.90;;;2.10;;
65289;SDS011;51893;59.754;10.110;2023-03-01T00:29:14;3.60;;;2.30;;
65289;SDS011;51893;59.754;10.110;2023-03-01T00:31:43;3.00;;;2.70;;
65289;SDS011;51893;59.754;10.110;2023-03-01T00:34:11;3.00;;;2.10;;
65289;SDS011;51893;59.754;10.110;2023-03-01T00:36:39;4.90;;;2.40;;
65289;SDS011;51893;59.754;10.110;2023-03-01T00:39:15;5.30;;;2.40;;
65289;SDS011;51893;59.754;10.110;2023-03-01T00:41:43;3.70;;;2.70;;
65289;SDS011;51893;59.754;10.110;2023-03-01T00:44:12;5.90;;;3.30;;
65289;SDS011;51893;59.754;10.110;2023-03-01T00:46:40;4.10;;;2.80;;
65289;SDS011;51893;59.754;10.110;2023-03-01T00:49:08;5.20;;;3.50;;
65289;SDS011;51893;59.754;10.110;2023-03-01T00:51:36;6.40;;;3.80;;
65289;SDS011;51893;59.754;10.110;2023-03-01T00:54:04;7.30;;;3.10;;
65289;SDS011;51893;59.754;10.110;2023-03-01T00:56:32;2.90;;;2.40;;
65289;SDS011;51893;59.754;10.110;2023-03-01T00:59:01;2.10;;;1.80;;
65289;SDS011;51893;59.754;10.110;2023-03-01T01:01:30;4.00;;;2.40;;
65289;SDS011;51893;59.754;10.110;2023-03-01T01:04:04;3.30;;;2.30;;
65289;SDS011;51893;59.754;10.110;2023-03-01T01:06:37;4.30;;;2.10;;
65289;SDS011;51893;59.754;10.110;2023-03-01T01:09:12;2.60;;;2.00;;
65289;SDS011;51893;59.754;10.110;2023-03-01T01:11:49;4.60;;;1.50;;
65289;SDS011;51893;59.754;10.110;2023-03-01T01:14:20;7.60;;;1.40;;
65289;SDS011;51893;59.754;10.110;2023-03-01T01:16:49;1.00;;;1.00;;
65289;SDS011;51893;59.754;10.110;2023-03-01T01:19:17;1.50;;;1.40;;
65289;SDS011;51893;59.754;10.110;2023-03-01T01:21:46;3.70;;;2.00;;
65289;SDS011;51893;59.754;10.110;2023-03-01T01:24:18;1.90;;;1.50;;
65289;SDS011;51893;59.754;10.110;2023-03-01T01:26:47;1.50;;;1.40;;
65289;SDS011;51893;59.754;10.110;2023-03-01T01:29:15;1.90;;;1.50;;
65289;SDS011;51893;59.754;10.110;2023-03-01T01:31:43;1.80;;;1.30;;
65289;SDS011;51893;59.754;10.110;2023-03-01T01:34:17;1.90;;;1.40;;
65289;SDS011;51893;59.754;10.110;2023-03-01T01:36:48;3.50;;;1.70;;
65289;SDS011;51893;59.754;10.110;2023-03-01T01:39:17;1.40;;;1.20;;
65289;SDS011;51893;59.754;10.110;2023-03-01T01:41:46;3.00;;;1.60;;
65289;SDS011;51893;59.754;10.110;2023-03-01T01:47:06;1.90;;;1.40;;
65289;SDS011;51893;59.754;10.110;2023-03-01T01:52:22;1.40;;;1.30;;
65289;SDS011;51893;59.754;10.110;2023-03-01T01:55:00;1.60;;;1.50;;
65289;SDS011;51893;59.754;10.110;2023-03-01T01:57:46;1.30;;;1.10;;
65289;SDS011;51893;59.754;10.110;2023-03-01T02:00:23;2.00;;;1.50;;
65289;SDS011;51893;59.754;10.110;2023-03-01T02:02:57;1.20;;;1.00;;
65289;SDS011;51893;59.754;10.110;2023-03-01T02:05:42;3.30;;;1.60;;
65289;SDS011;51893;59.754;10.110;2023-03-01T02:08:25;1.10;;;1.00;;
65289;SDS011;51893;59.754;10.110;2023-03-01T02:10:56;0.70;;;0.70;;
65289;SDS011;51893;59.754;10.110;2023-03-01T02:13:27;1.10;;;1.00;;
65289;SDS011;51893;59.754;10.110;2023-03-01T02:15:56;1.90;;;1.20;;
65289;SDS011;51893;59.754;10.110;2023-03-01T02:18:24;1.70;;;1.50;;
65289;SDS011;51893;59.754;10.110;2023-03-01T02:21:08;1.20;;;1.10;;
65289;SDS011;51893;59.754;10.110;2023-03-01T02:23:54;1.70;;;1.30;;
65289;SDS011;51893;59.754;10.110;2023-03-01T02:26:45;2.90;;;1.50;;
65289;SDS011;51893;59.754;10.110;2023-03-01T02:29:16;1.30;;;1.20;;
65289;SDS011;51893;59.754;10.110;2023-03-01T02:31:44;0.70;;;0.70;;
65289;SDS011;51893;59.754;10.110;2023-03-01T02:34:15;1.50;;;1.00;;
65289;SDS011;51893;59.754;10.110;2023-03-01T02:36:56;1.30;;;1.00;;
65289;SDS011;51893;59.754;10.110;2023-03-01T02:39:34;1.70;;;1.20;;
65289;SDS011;51893;59.754;10.110;2023-03-01T02:42:13;4.10;;;1.30;;
65289;SDS011;51893;59.754;10.110;2023-03-01T02:44:44;1.40;;;1.00;;
65289;SDS011;51893;59.754;10.110;2023-03-01T02:47:12;1.90;;;1.60;;
65289;SDS011;51893;59.754;10.110;2023-03-01T02:49:40;1.80;;;1.10;;
65289;SDS011;51893;59.754;10.110;2023-03-01T02:52:30;1.30;;;1.20;;
65289;SDS011;51893;59.754;10.110;2023-03-01T02:55:12;0.70;;;0.70;;
65289;SDS011;51893;59.754;10.110;2023-03-01T02:57:45;1.00;;;1.00;;
65289;SDS011;51893;59.754;10.110;2023-03-01T03:00:40;2.80;;;1.40;;
65289;SDS011;51893;59.754;10.110;2023-03-01T03:03:17;1.30;;;1.20;;
65289;SDS011;51893;59.754;10.110;2023-03-01T03:05:48;1.80;;;1.50;;
65289;SDS011;51893;59.754;10.110;2023-03-01T03:08:17;0.90;;;0.90;;
65289;SDS011;51893;59.754;10.110;2023-03-01T03:13:20;1.10;;;1.00;;
65289;SDS011;51893;59.754;10.110;2023-03-01T03:15:50;2.40;;;1.20;;
65289;SDS011;51893;59.754;10.110;2023-03-01T03:18:18;1.10;;;1.10;;
65289;SDS011;51893;59.754;10.110;2023-03-01T03:20:46;1.10;;;1.00;;
65289;SDS011;51893;59.754;10.110;2023-03-01T03:23:21;0.90;;;0.90;;
65289;SDS011;51893;59.754;10.110;2023-03-01T03:25:50;2.30;;;1.30;;
65289;SDS011;51893;59.754;10.110;2023-03-01T03:28:18;1.20;;;1.10;;
65289;SDS011;51893;59.754;10.110;2023-03-01T03:30:46;1.00;;;0.70;;
65289;SDS011;51893;59.754;10.110;2023-03-01T03:33:14;0.70;;;0.60;;
65289;SDS011;51893;59.754;10.110;2023-03-01T03:35:46;1.30;;;0.90;;
65289;SDS011;51893;59.754;10.110;2023-03-01T03:38:18;1.10;;;1.00;;
65289;SDS011;51893;59.754;10.110;2023-03-01T03:40:52;2.30;;;1.40;;
65289;SDS011;51893;59.754;10.110;2023-03-01T03:43:32;2.10;;;1.10;;
65289;SDS011;51893;59.754;10.110;2023-03-01T03:46:02;1.00;;;0.80;;
65289;SDS011;51893;59.754;10.110;2023-03-01T03:48:35;1.70;;;1.10;;
65289;SDS011;51893;59.754;10.110;2023-03-01T03:51:09;2.20;;;1.10;;
65289;SDS011;51893;59.754;10.110;2023-03-01T03:53:39;0.80;;;0.80;;
65289;SDS011;51893;59.754;10.110;2023-03-01T03:56:08;1.20;;;1.20;;
65289;SDS011;51893;59.754;10.110;2023-03-01T03:58:37;0.90;;;0.90;;
65289;SDS011;51893;59.754;10.110;2023-03-01T04:01:05;0.90;;;0.90;;
65289;SDS011;51893;59.754;10.110;2023-03-01T04:03:34;1.80;;;1.50;;
65289;SDS011;51893;59.754;10.110;2023-03-01T04:06:02;1.50;;;1.10;;
65289;SDS011;51893;59.754;10.110;2023-03-01T04:08:32;0.80;;;0.80;;
65289;SDS011;51893;59.754;10.110;2023-03-01T04:11:01;3.40;;;1.10;;
65289;SDS011;51893;59.754;10.110;2023-03-01T04:13:53;1.20;;;1.10;;
65289;SDS011;51893;59.754;10.110;2023-03-01T04:16:24;1.20;;;1.20;;
65289;SDS011;51893;59.754;10.110;2023-03-01T04:18:53;1.70;;;1.00;;
65289;SDS011;51893;59.754;10.110;2023-03-01T04:21:21;1.30;;;1.20;;
65289;SDS011;51893;59.754;10.110;2023-03-01T04:23:49;1.00;;;1.00;;
65289;SDS011;51893;59.754;10.110;2023-03-01T04:26:20;0.80;;;0.80;;
65289;SDS011;51893;59.754;10.110;2023-03-01T04:28:49;1.40;;;1.30;;
65289;SDS011;51893;59.754;10.110;2023-03-01T04:31:18;2.20;;;1.00;;
65289;SDS011;51893;59.754;10.110;2023-03-01T04:33:52;0.90;;;0.90;;
65289;SDS011;51893;59.754;10.110;2023-03-01T04:36:24;0.90;;;0.90;;
65289;SDS011;51893;59.754;10.110;2023-03-01T04:38:55;1.10;;;1.00;;
65289;SDS011;51893;59.754;10.110;2023-03-01T04:41:25;4.60;;;1.40;;
65289;SDS011;51893;59.754;10.110;2023-03-01T04:43:53;2.30;;;1.10;;
65289;SDS011;51893;59.754;10.110;2023-03-01T04:46:21;1.00;;;0.90;;
65289;SDS011;51893;59.754;10.110;2023-03-01T04:48:50;1.10;;;1.00;;
65289;SDS011;51893;59.754;10.110;2023-03-01T04:51:18;0.70;;;0.60;;
65289;SDS011;51893;59.754;10.110;2023-03-01T04:53:46;0.60;;;0.60;;
65289;SDS011;51893;59.754;10.110;2023-03-01T04:56:15;0.70;;;0.70;;
65289;SDS011;51893;59.754;10.110;2023-03-01T04:58:45;1.60;;;1.10;;
65289;SDS011;51893;59.754;10.110;2023-03-01T05:01:16;0.80;;;0.80;;
65289;SDS011;51893;59.754;10.110;2023-03-01T05:03:49;1.90;;;1.00;;
65289;SDS011;51893;59.754;10.110;2023-03-01T05:06:19;1.20;;;1.10;;
65289;SDS011;51893;59.754;10.110;2023-03-01T05:08:48;1.10;;;1.00;;
65289;SDS011;51893;59.754;10.110;2023-03-01T05:11:19;0.80;;;0.80;;
65289;SDS011;51893;59.754;10.110;2023-03-01T05:13:48;0.90;;;0.90;;
65289;SDS011;51893;59.754;10.110;2023-03-01T05:16:17;1.10;;;1.00;;
65289;SDS011;51893;59.754;10.110;2023-03-01T05:18:47;0.80;;;0.80;;
65289;SDS011;51893;59.754;10.110;2023-03-01T05:21:16;0.70;;;0.70;;
65289;SDS011;51893;59.754;10.110;2023-03-01T05:23:44;1.20;;;1.10;;
65289;SDS011;51893;59.754;10.110;2023-03-01T05:26:19;0.80;;;0.80;;
65289;SDS011;51893;59.754;10.110;2023-03-01T05:28:57;1.10;;;0.90;;
65289;SDS011;51893;59.754;10.110;2023-03-01T05:31:27;1.60;;;1.20;;
65289;SDS011;51893;59.754;10.110;2023-03-01T05:33:56;0.80;;;0.80;;
65289;SDS011;51893;59.754;10.110;2023-03-01T05:36:24;2.00;;;0.90;;
65289;SDS011;51893;59.754;10.110;2023-03-01T05:38:54;1.40;;;1.10;;
65289;SDS011;51893;59.754;10.110;2023-03-01T05:41:23;1.00;;;0.80;;
65289;SDS011;51893;59.754;10.110;2023-03-01T05:43:51;1.90;;;1.10;;
65289;SDS011;51893;59.754;10.110;2023-03-01T05:46:20;4.00;;;1.20;;
65289;SDS011;51893;59.754;10.110;2023-03-01T05:48:48;0.80;;;0.80;;
65289;SDS011;51893;59.754;10.110;2023-03-01T05:51:15;1.50;;;1.40;;
65289;SDS011;51893;59.754;10.110;2023-03-01T05:53:45;0.90;;;0.80;;
65289;SDS011;51893;59.754;10.110;2023-03-01T05:56:14;1.00;;;1.00;;
65289;SDS011;51893;59.754;10.110;2023-03-01T05:58:42;1.40;;;1.20;;
65289;SDS011;51893;59.754;10.110;2023-03-01T06:01:13;1.20;;;1.20;;
65289;SDS011;51893;59.754;10.110;2023-03-01T06:03:43;1.80;;;1.20;;
65289;SDS011;51893;59.754;10.110;2023-03-01T06:06:11;1.00;;;0.70;;
65289;SDS011;51893;59.754;10.110;2023-03-01T06:08:39;1.20;;;1.10;;
65289;SDS011;51893;59.754;10.110;2023-03-01T06:11:10;1.30;;;0.90;;
65289;SDS011;51893;59.754;10.110;2023-03-01T06:13:38;0.80;;;0.80;;
65289;SDS011;51893;59.754;10.110;2023-03-01T06:16:06;2.10;;;1.10;;
65289;SDS011;51893;59.754;10.110;2023-03-01T06:18:35;1.20;;;1.10;;
65289;SDS011;51893;59.754;10.110;2023-03-01T06:21:06;1.10;;;0.90;;
65289;SDS011;51893;59.754;10.110;2023-03-01T06:23:39;2.30;;;1.00;;
65289;SDS011;51893;59.754;10.110;2023-03-01T06:26:08;1.40;;;1.10;;
65289;SDS011;51893;59.754;10.110;2023-03-01T06:28:36;1.60;;;1.30;;
65289;SDS011;51893;59.754;10.110;2023-03-01T06:31:04;0.80;;;0.80;;
65289;SDS011;51893;59.754;10.110;2023-03-01T06:33:36;0.80;;;0.70;;
65289;SDS011;51893;59.754;10.110;2023-03-01T06:36:05;1.20;;;0.70;;
65289;SDS011;51893;59.754;10.110;2023-03-01T06:38:34;1.50;;;1.10;;
65289;SDS011;51893;59.754;10.110;2023-03-01T06:41:02;1.20;;;1.10;;
65289;SDS011;51893;59.754;10.110;2023-03-01T06:43:31;1.80;;;1.30;;
65289;SDS011;51893;59.754;10.110;2023-03-01T06:46:03;3.70;;;2.80;;
65289;SDS011;51893;59.754;10.110;2023-03-01T06:48:34;2.90;;;2.50;;
65289;SDS011;51893;59.754;10.110;2023-03-01T06:51:03;3.00;;;1.90;;
65289;SDS011;51893;59.754;10.110;2023-03-01T06:53:33;1.80;;;1.40;;
65289;SDS011;51893;59.754;10.110;2023-03-01T06:56:01;1.40;;;1.20;;
65289;SDS011;51893;59.754;10.110;2023-03-01T06:58:29;0.90;;;0.70;;
65289;SDS011;51893;59.754;10.110;2023-03-01T07:00:57;1.00;;;0.90;;
65289;SDS011;51893;59.754;10.110;2023-03-01T07:03:25;0.80;;;0.80;;
65289;SDS011;51893;59.754;10.110;2023-03-01T07:05:53;1.90;;;1.20;;
65289;SDS011;51893;59.754;10.110;2023-03-01T07:08:21;1.30;;;0.90;;
65289;SDS011;51893;59.754;10.110;2023-03-01T07:10:57;0.90;;;0.90;;
65289;SDS011;51893;59.754;10.110;2023-03-01T07:13:25;1.30;;;1.20;;
65289;SDS011;51893;59.754;10.110;2023-03-01T07:15:53;0.80;;;0.80;;
65289;SDS011;51893;59.754;10.110;2023-03-01T07:18:21;1.20;;;0.80;;
65289;SDS011;51893;59.754;10.110;2023-03-01T07:20:49;0.80;;;0.80;;
65289;SDS011;51893;59.754;10.110;2023-03-01T07:23:17;1.30;;;1.20;;
65289;SDS011;51893;59.754;10.110;2023-03-01T07:25:51;2.20;;;1.20;;
65289;SDS011;51893;59.754;10.110;2023-03-01T07:28:26;2.90;;;1.20;;
65289;SDS011;51893;59.754;10.110;2023-03-01T07:30:55;2.90;;;1.60;;
65289;SDS011;51893;59.754;10.110;2023-03-01T07:33:27;1.00;;;1.00;;
65289;SDS011;51893;59.754;10.110;2023-03-01T07:36:01;1.10;;;1.00;;
65289;SDS011;51893;59.754;10.110;2023-03-01T07:41:00;0.70;;;0.70;;
65289;SDS011;51893;59.754;10.110;2023-03-01T07:43:29;1.10;;;1.00;;
65289;SDS011;51893;59.754;10.110;2023-03-01T07:46:00;2.20;;;1.20;;
65289;SDS011;51893;59.754;10.110;2023-03-01T07:48:29;1.00;;;1.00;;
65289;SDS011;51893;59.754;10.110;2023-03-01T07:50:59;0.70;;;0.70;;
65289;SDS011;51893;59.754;10.110;2023-03-01T07:53:28;1.30;;;1.20;;
65289;SDS011;51893;59.754;10.110;2023-03-01T07:58:35;1.20;;;1.10;;
65289;SDS011;51893;59.754;10.110;2023-03-01T08:01:07;1.40;;;1.20;;
65289;SDS011;51893;59.754;10.110;2023-03-01T08:03:38;2.60;;;1.70;;
65289;SDS011;51893;59.754;10.110;2023-03-01T08:06:08;1.80;;;1.30;;
65289;SDS011;51893;59.754;10.110;2023-03-01T08:08:38;2.30;;;1.60;;
65289;SDS011;51893;59.754;10.110;2023-03-01T08:11:09;2.80;;;1.20;;
65289;SDS011;51893;59.754;10.110;2023-03-01T08:13:39;1.10;;;1.00;;
65289;SDS011;51893;59.754;10.110;2023-03-01T08:16:14;1.80;;;1.00;;
65289;SDS011;51893;59.754;10.110;2023-03-01T08:18:43;0.70;;;0.70;;
65289;SDS011;51893;59.754;10.110;2023-03-01T08:21:16;0.80;;;0.80;;
65289;SDS011;51893;59.754;10.110;2023-03-01T08:23:46;0.80;;;0.70;;
65289;SDS011;51893;59.754;10.110;2023-03-01T08:26:17;1.60;;;1.10;;
65289;SDS011;51893;59.754;10.110;2023-03-01T08:28:48;1.20;;;1.00;;
65289;SDS011;51893;59.754;10.110;2023-03-01T08:34:00;0.70;;;0.70;;
65289;SDS011;51893;59.754;10.110;2023-03-01T08:36:32;2.60;;;1.10;;
65289;SDS011;51893;59.754;10.110;2023-03-01T08:39:03;1.40;;;0.80;;
65289;SDS011;51893;59.754;10.110;2023-03-01T08:41:32;0.60;;;0.60;;
65289;SDS011;51893;59.754;10.110;2023-03-01T08:44:00;0.70;;;0.70;;
65289;SDS011;51893;59.754;10.110;2023-03-01T08:46:33;2.40;;;0.60;;
65289;SDS011;51893;59.754;10.110;2023-03-01T08:51:39;2.20;;;0.90;;
65289;SDS011;51893;59.754;10.110;2023-03-01T08:54:13;1.30;;;1.10;;
65289;SDS011;51893;59.754;10.110;2023-03-01T08:56:46;0.90;;;0.90;;
65289;SDS011;51893;59.754;10.110;2023-03-01T08:59:17;2.10;;;1.10;;
65289;SDS011;51893;59.754;10.110;2023-03-01T09:01:47;1.60;;;1.20;;
65289;SDS011;51893;59.754;10.110;2023-03-01T09:04:16;0.70;;;0.70;;
65289;SDS011;51893;59.754;10.110;2023-03-01T09:06:45;3.40;;;1.40;;
65289;SDS011;51893;59.754;10.110;2023-03-01T09:09:16;6.30;;;1.40;;
65289;SDS011;51893;59.754;10.110;2023-03-01T09:11:46;3.80;;;1.30;;
65289;SDS011;51893;59.754;10.110;2023-03-01T09:14:15;2.60;;;1.40;;
65289;SDS011;51893;59.754;10.110;2023-03-01T09:16:46;1.10;;;1.00;;
65289;SDS011;51893;59.754;10.110;2023-03-01T09:19:16;1.20;;;1.10;;
65289;SDS011;51893;59.754;10.110;2023-03-01T09:21:44;3.00;;;1.10;;
65289;SDS011;51893;59.754;10.110;2023-03-01T09:24:23;5.20;;;1.30;;
65289;SDS011;51893;59.754;10.110;2023-03-01T09:26:54;2.00;;;1.40;;
65289;SDS011;51893;59.754;10.110;2023-03-01T09:29:25;10.70;;;1.40;;
65289;SDS011;51893;59.754;10.110;2023-03-01T09:31:53;2.30;;;1.10;;
65289;SDS011;51893;59.754;10.110;2023-03-01T09:34:23;0.90;;;0.80;;
65289;SDS011;51893;59.754;10.110;2023-03-01T09:36:51;1.30;;;0.70;;
65289;SDS011;51893;59.754;10.110;2023-03-01T09:39:19;6.70;;;1.50;;
65289;SDS011;51893;59.754;10.110;2023-03-01T09:41:59;2.30;;;1.60;;
65289;SDS011;51893;59.754;10.110;2023-03-01T09:44:40;1.20;;;0.90;;
65289;SDS011;51893;59.754;10.110;2023-03-01T09:47:21;2.20;;;1.00;;
65289;SDS011;51893;59.754;10.110;2023-03-01T09:50:06;1.20;;;1.00;;
65289;SDS011;51893;59.754;10.110;2023-03-01T09:55:31;1.20;;;0.90;;
65289;SDS011;51893;59.754;10.110;2023-03-01T10:01:29;4.40;;;1.00;;
65289;SDS011;51893;59.754;10.110;2023-03-01T10:10:08;0.60;;;0.60;;
65289;SDS011;51893;59.754;10.110;2023-03-01T10:12:45;2.30;;;1.00;;
65289;SDS011;51893;59.754;10.110;2023-03-01T10:15:24;0.70;;;0.70;;
65289;SDS011;51893;59.754;10.110;2023-03-01T10:18:11;1.50;;;0.90;;
65289;SDS011;51893;59.754;10.110;2023-03-01T10:21:00;0.80;;;0.80;;
65289;SDS011;51893;59.754;10.110;2023-03-01T10:23:41;0.70;;;0.70;;
65289;SDS011;51893;59.754;10.110;2023-03-01T10:26:22;1.60;;;0.70;;
65289;SDS011;51893;59.754;10.110;2023-03-01T10:31:47;1.70;;;1.20;;
65289;SDS011;51893;59.754;10.110;2023-03-01T10:34:21;1.80;;;1.00;;
65289;SDS011;51893;59.754;10.110;2023-03-01T10:37:08;3.40;;;1.20;;
65289;SDS011;51893;59.754;10.110;2023-03-01T10:40:06;8.60;;;1.20;;
65289;SDS011;51893;59.754;10.110;2023-03-01T10:42:57;1.50;;;1.40;;
65289;SDS011;51893;59.754;10.110;2023-03-01T10:50:36;1.60;;;1.10;;
65289;SDS011;51893;59.754;10.110;2023-03-01T10:53:21;3.10;;;1.80;;
65289;SDS011;51893;59.754;10.110;2023-03-01T10:58:58;4.70;;;2.50;;
65289;SDS011;51893;59.754;10.110;2023-03-01T11:01:37;3.60;;;2.00;;
65289;SDS011;51893;59.754;10.110;2023-03-01T11:06:34;1.70;;;1.20;;
65289;SDS011;51893;59.754;10.110;2023-03-01T11:11:57;4.20;;;1.00;;
65289;SDS011;51893;59.754;10.110;2023-03-01T11:14:35;0.90;;;0.70;;
65289;SDS011;51893;59.754;10.110;2023-03-01T11:17:30;1.30;;;0.90;;
65289;SDS011;51893;59.754;10.110;2023-03-01T11:20:35;4.40;;;0.80;;
65289;SDS011;51893;59.754;10.110;2023-03-01T11:23:13;6.20;;;0.80;;
65289;SDS011;51893;59.754;10.110;2023-03-01T11:25:47;1.70;;;0.50;;
65289;SDS011;51893;59.754;10.110;2023-03-01T11:28:22;0.90;;;0.70;;
65289;SDS011;51893;59.754;10.110;2023-03-01T11:31:07;2.20;;;1.20;;
65289;SDS011;51893;59.754;10.110;2023-03-01T11:36:42;1.10;;;0.80;;
65289;SDS011;51893;59.754;10.110;2023-03-01T11:39:59;0.70;;;0.70;;
65289;SDS011;51893;59.754;10.110;2023-03-01T11:43:00;1.30;;;0.70;;
65289;SDS011;51893;59.754;10.110;2023-03-01T11:52:27;3.80;;;0.60;;
65289;SDS011;51893;59.754;10.110;2023-03-01T11:55:30;0.90;;;0.90;;
65289;SDS011;51893;59.754;10.110;2023-03-01T12:01:25;4.20;;;0.90;;
65289;SDS011;51893;59.754;10.110;2023-03-01T12:04:38;5.60;;;1.00;;
65289;SDS011;51893;59.754;10.110;2023-03-01T12:10:22;2.10;;;0.90;;
65289;SDS011;51893;59.754;10.110;2023-03-01T12:19:56;1.10;;;0.60;;
65289;SDS011;51893;59.754;10.110;2023-03-01T12:23:04;0.90;;;0.70;;
65289;SDS011;51893;59.754;10.110;2023-03-01T12:34:55;1.50;;;0.70;;
65289;SDS011;51893;59.754;10.110;2023-03-01T12:43:48;5.40;;;0.90;;
65289;SDS011;51893;59.754;10.110;2023-03-01T12:47:20;0.90;;;0.80;;
65289;SDS011;51893;59.754;10.110;2023-03-01T12:50:20;4.50;;;0.80;;
65289;SDS011;51893;59.754;10.110;2023-03-01T12:52:55;1.80;;;0.80;;
65289;SDS011;51893;59.754;10.110;2023-03-01T12:55:35;3.90;;;0.80;;
65289;SDS011;51893;59.754;10.110;2023-03-01T13:01:14;1.00;;;0.80;;
65289;SDS011;51893;59.754;10.110;2023-03-01T13:07:04;3.80;;;0.80;;
65289;SDS011;51893;59.754;10.110;2023-03-01T13:15:28;6.70;;;1.00;;
65289;SDS011;51893;59.754;10.110;2023-03-01T13:20:58;3.50;;;0.90;;
65289;SDS011;51893;59.754;10.110;2023-03-01T13:23:32;4.20;;;0.90;;
65289;SDS011;51893;59.754;10.110;2023-03-01T13:26:06;3.10;;;1.00;;
65289;SDS011;51893;59.754;10.110;2023-03-01T13:28:54;2.50;;;0.80;;
65289;SDS011;51893;59.754;10.110;2023-03-01T13:33:57;0.90;;;0.90;;
65289;SDS011;51893;59.754;10.110;2023-03-01T13:36:54;2.60;;;0.90;;
65289;SDS011;51893;59.754;10.110;2023-03-01T13:39:39;3.90;;;0.80;;
65289;SDS011;51893;59.754;10.110;2023-03-01T13:45:22;0.50;;;0.50;;
65289;SDS011;51893;59.754;10.110;2023-03-01T13:48:11;3.00;;;0.80;;
65289;SDS011;51893;59.754;10.110;2023-03-01T13:51:03;2.00;;;1.00;;
65289;SDS011;51893;59.754;10.110;2023-03-01T13:53:45;1.00;;;0.60;;
65289;SDS011;51893;59.754;10.110;2023-03-01T13:56:21;2.70;;;0.90;;
65289;SDS011;51893;59.754;10.110;2023-03-01T13:59:01;2.10;;;0.90;;
65289;SDS011;51893;59.754;10.110;2023-03-01T14:01:35;2.30;;;0.80;;
65289;SDS011;51893;59.754;10.110;2023-03-01T14:07:16;1.30;;;1.10;;
65289;SDS011;51893;59.754;10.110;2023-03-01T14:09:49;3.20;;;1.10;;
65289;SDS011;51893;59.754;10.110;2023-03-01T14:19:19;4.80;;;1.20;;
65289;SDS011;51893;59.754;10.110;2023-03-01T14:24:55;2.00;;;1.20;;
65289;SDS011;51893;59.754;10.110;2023-03-01T14:27:37;1.80;;;1.00;;
65289;SDS011;51893;59.754;10.110;2023-03-01T14:30:18;2.00;;;1.10;;
65289;SDS011;51893;59.754;10.110;2023-03-01T14:32:55;1.50;;;1.10;;
65289;SDS011;51893;59.754;10.110;2023-03-01T14:35:28;2.10;;;1.10;;
65289;SDS011;51893;59.754;10.110;2023-03-01T14:37:58;2.50;;;1.20;;
65289;SDS011;51893;59.754;10.110;2023-03-01T14:43:00;6.20;;;1.50;;
65289;SDS011;51893;59.754;10.110;2023-03-01T14:45:35;3.00;;;1.60;;
65289;SDS011;51893;59.754;10.110;2023-03-01T14:48:05;4.10;;;1.20;;
65289;SDS011;51893;59.754;10.110;2023-03-01T14:50:40;5.20;;;1.20;;
65289;SDS011;51893;59.754;10.110;2023-03-01T14:53:29;1.30;;;1.10;;
65289;SDS011;51893;59.754;10.110;2023-03-01T14:56:15;2.20;;;1.10;;
65289;SDS011;51893;59.754;10.110;2023-03-01T14:58:53;3.00;;;1.30;;
65289;SDS011;51893;59.754;10.110;2023-03-01T15:01:27;3.40;;;1.20;;
65289;SDS011;51893;59.754;10.110;2023-03-01T15:03:58;3.20;;;1.40;;
65289;SDS011;51893;59.754;10.110;2023-03-01T15:06:28;2.10;;;0.80;;
65289;SDS011;51893;59.754;10.110;2023-03-01T15:08:58;2.10;;;0.90;;
65289;SDS011;51893;59.754;10.110;2023-03-01T15:11:31;3.00;;;0.90;;
65289;SDS011;51893;59.754;10.110;2023-03-01T15:14:01;0.90;;;0.80;;
65289;SDS011;51893;59.754;10.110;2023-03-01T15:16:33;1.10;;;0.90;;
65289;SDS011;51893;59.754;10.110;2023-03-01T15:19:07;6.00;;;0.70;;
65289;SDS011;51893;59.754;10.110;2023-03-01T15:21:39;2.80;;;1.20;;
65289;SDS011;51893;59.754;10.110;2023-03-01T15:26:51;1.20;;;1.00;;
65289;SDS011;51893;59.754;10.110;2023-03-01T15:29:26;5.60;;;2.80;;
65289;SDS011;51893;59.754;10.110;2023-03-01T15:32:01;6.10;;;3.50;;
65289;SDS011;51893;59.754;10.110;2023-03-01T15:34:50;10.20;;;4.20;;
65289;SDS011;51893;59.754;10.110;2023-03-01T15:40:27;4.70;;;1.00;;
65289;SDS011;51893;59.754;10.110;2023-03-01T15:43:02;3.90;;;1.20;;
65289;SDS011;51893;59.754;10.110;2023-03-01T15:45:33;3.20;;;1.30;;
65289;SDS011;51893;59.754;10.110;2023-03-01T15:48:04;6.00;;;1.80;;
65289;SDS011;51893;59.754;10.110;2023-03-01T15:50:59;4.50;;;1.20;;
65289;SDS011;51893;59.754;10.110;2023-03-01T15:53:29;5.20;;;1.50;;
65289;SDS011;51893;59.754;10.110;2023-03-01T15:55:57;2.00;;;1.50;;
65289;SDS011;51893;59.754;10.110;2023-03-01T15:58:25;4.90;;;1.20;;
65289;SDS011;51893;59.754;10.110;2023-03-01T16:00:53;4.50;;;1.30;;
65289;SDS011;51893;59.754;10.110;2023-03-01T16:03:28;2.10;;;1.30;;
65289;SDS011;51893;59.754;10.110;2023-03-01T16:05:57;2.00;;;1.10;;
65289;SDS011;51893;59.754;10.110;2023-03-01T16:08:25;2.60;;;1.20;;
65289;SDS011;51893;59.754;10.110;2023-03-01T16:10:53;1.30;;;1.00;;
65289;SDS011;51893;59.754;10.110;2023-03-01T16:13:22;2.20;;;1.00;;
65289;SDS011;51893;59.754;10.110;2023-03-01T16:15:51;5.20;;;1.30;;
65289;SDS011;51893;59.754;10.110;2023-03-01T16:18:19;1.50;;;1.30;;
65289;SDS011;51893;59.754;10.110;2023-03-01T16:20:47;0.80;;;0.80;;
65289;SDS011;51893;59.754;10.110;2023-03-01T16:23:16;1.30;;;1.20;;
65289;SDS011;51893;59.754;10.110;2023-03-01T16:25:45;5.40;;;1.30;;
65289;SDS011;51893;59.754;10.110;2023-03-01T16:28:13;1.40;;;0.90;;
65289;SDS011;51893;59.754;10.110;2023-03-01T16:30:49;4.20;;;1.60;;
65289;SDS011;51893;59.754;10.110;2023-03-01T16:33:19;3.40;;;1.50;;
65289;SDS011;51893;59.754;10.110;2023-03-01T16:36:06;1.70;;;1.00;;
65289;SDS011;51893;59.754;10.110;2023-03-01T16:38:37;1.30;;;0.80;;
65289;SDS011;51893;59.754;10.110;2023-03-01T16:41:12;5.50;;;1.10;;
65289;SDS011;51893;59.754;10.110;2023-03-01T16:43:42;4.40;;;1.10;;
65289;SDS011;51893;59.754;10.110;2023-03-01T16:46:17;1.00;;;0.90;;
65289;SDS011;51893;59.754;10.110;2023-03-01T16:48:48;5.50;;;1.40;;
65289;SDS011;51893;59.754;10.110;2023-03-01T16:51:16;5.00;;;1.50;;
65289;SDS011;51893;59.754;10.110;2023-03-01T16:53:44;1.40;;;1.30;;
65289;SDS011;51893;59.754;10.110;2023-03-01T16:56:19;3.90;;;1.40;;
65289;SDS011;51893;59.754;10.110;2023-03-01T16:58:47;4.20;;;1.40;;
65289;SDS011;51893;59.754;10.110;2023-03-01T17:01:20;5.60;;;1.70;;
65289;SDS011;51893;59.754;10.110;2023-03-01T17:03:54;9.70;;;2.10;;
65289;SDS011;51893;59.754;10.110;2023-03-01T17:06:22;2.20;;;1.60;;
65289;SDS011;51893;59.754;10.110;2023-03-01T17:08:54;2.10;;;1.40;;
65289;SDS011;51893;59.754;10.110;2023-03-01T17:11:25;3.40;;;1.50;;
65289;SDS011;51893;59.754;10.110;2023-03-01T17:13:52;3.60;;;1.40;;
65289;SDS011;51893;59.754;10.110;2023-03-01T17:16:20;3.50;;;1.80;;
65289;SDS011;51893;59.754;10.110;2023-03-01T17:18:49;6.30;;;1.60;;